• Join FlightAware (Why Join?)
  • Login
  • US Flag 
09:21PM EDT


 

Airport Tracker/Info


-or-


 

Live Flight TrackerFlight Track Log ✈ UAL619 ✈ 15-May-2013 ✈ KSFO - KLAS

Flight Track Log - Related Links

Times and Time Zones

All times are in EDT time to prevent confusion due to time zone crossing. See the UAL619 flight status page for this flight to view local times or setup timezone preferences in your user account.

Time Position Orientation Groundspeed Altitude Reporting Facility
EDT Latitude Longitude Course Direction KTS MPH feet Rate Location/Type
12:00AM 37.6247 -122.3903 136° Southeast 138 159 33,000  Level Oakland Center
12:01AM 37.6500 -122.4333 307° West 166 191 3,100 -15,660 Descending Northern Cal TRACON
12:02AM 37.6667 -122.5000 288° West 226 260 5,900 2,700 Climbing Northern Cal TRACON
12:03AM 37.6000 -122.5000 180° South 267 307 8,500 2,340 Climbing Northern Cal TRACON
12:03AM 37.5783 -122.4808 145° Southeast 272 313 9,000 2,400 Climbing Oakland Center
12:04AM 37.4132 -122.3115 130° Southeast  Level FlightAware Approximate
12:04AM 37.5006 -122.4286 152° Southeast 312 359 11,700  Level Oakland Center
12:05AM 37.3386 -122.2129 136° Southeast  Level FlightAware Approximate
12:05AM 37.4614 -122.3186 114° Southeast 355 409 14,000  Level Oakland Center
12:06AM 37.4272 -122.1831 108° East 404 465 15,600 1,860 Climbing Oakland Center
12:07AM 37.3964 -122.0411 105° East 422 486 17,800 1,860 Climbing Oakland Center
12:08AM 37.3633 -121.8914 105° East 441 507 19,500 1,860 Climbing Oakland Center
12:09AM 37.3311 -121.7433 105° East 457 526 21,700 1,740 Climbing Oakland Center
12:10AM 37.2961 -121.5869 106° East 466 536 23,100 1,440 Climbing Oakland Center
12:11AM 37.2519 -121.3928 106° East 481 554 24,700 1,320 Climbing Oakland Center
12:12AM 37.2142 -121.2250 106° East 497 572 25,900 1,200 Climbing Oakland Center
12:13AM 37.1756 -121.0542 106° East 508 585 27,200 1,320 Climbing Oakland Center
12:14AM 37.1361 -120.8828 106° East 513 590 28,700 1,380 Climbing Oakland Center
12:15AM 37.0961 -120.7108 106° East 521 600 30,100 1,380 Climbing Oakland Center
12:16AM 37.0589 -120.5406 105° East 529 609 31,600 1,380 Climbing Oakland Center
12:17AM 37.0183 -120.3778 107° East 501 577 33,000 660 Climbing Oakland Center
12:18AM 36.9800 -120.2150 106° East 490 564 33,000  Level Oakland Center
12:19AM 36.9400 -120.0522 107° East 496 571 33,000  Level Oakland Center
12:20AM 36.9083 -119.8831 103° East 503 579 33,000  Level Oakland Center
12:21AM 36.9222 -119.7122 84° East 502 578 33,000  Level Oakland Center
12:22AM 36.9758 -119.5544 67° East 495 570 33,000 -60 Level Oakland Center
12:24AM 37.0408 -119.3664 67° East 489 563 32,900 -60 Descending Oakland Center
12:25AM 37.0950 -119.2111 66° East 488 562 32,900  Level Oakland Center
12:26AM 37.1475 -119.0539 67° East 488 562 32,900  Level Oakland Center
12:27AM 37.2011 -118.8981 67° East 486 559 33,000  Climbing Oakland Center
12:28AM 37.2522 -118.7403 68° East 486 559 33,000  Level Oakland Center
12:29AM 37.3031 -118.5819 68° East 487 560 33,000  Level Oakland Center
12:30AM 37.3572 -118.4181 67° East 488 562 33,000  Level Oakland Center
12:31AM 37.3700 -118.2439 85° East 496 571 33,000  Level Oakland Center
12:32AM 37.3814 -118.0697 85° East 500 575 33,000  Level Oakland Center
12:33AM 37.3925 -117.8967 85° East 500 575 33,000  Level Oakland Center
12:34AM 37.4036 -117.7242 85° East 498 573 33,000  Level Oakland Center
12:35AM 37.4142 -117.5528 86° East 495 570 33,000  Level Oakland Center
12:36AM 37.4169 -117.3800 89° East 498 573 33,000  Level Oakland Center
12:37AM 37.3567 -117.2294 117° Southeast 496 571 33,000  Level Oakland Center
12:38AM 37.2289 -117.1067 143° Southeast 489 563 33,000  Level Oakland Center
12:38AM 37.2083 -117.0900 147° Southeast 478 550 33,000 -840 Level Los Angeles Center
12:39AM 37.1211 -117.0172 146° Southeast 467 537 32,200 -1,740 Descending Oakland Center
12:40AM 37.0136 -116.9253 146° Southeast 467 537 30,100 -2,220 Descending Oakland Center
12:41AM 36.9086 -116.8381 146° Southeast 457 526 27,800 -2,100 Descending Oakland Center
12:41AM 36.8881 -116.8200 145° Southeast 457 526 27,300 -1,980 Descending Los Angeles Center
12:42AM 36.7889 -116.7314 144° Southeast 445 512 25,200 -1,920 Descending Los Angeles Center
12:43AM 36.6944 -116.5947 131° Southeast 435 501 23,400 -1,380 Descending Los Angeles Center
12:44AM 36.6183 -116.4850 131° Southeast 423 487 22,400 -960 Descending Los Angeles Center
12:45AM 36.5436 -116.3814 132° Southeast 410 472 21,500 -720 Descending Los Angeles Center
12:46AM 36.4850 -116.2961 131° Southeast 406 467 21,000 -600 Descending Los Angeles Center
12:47AM 36.3986 -116.1794 133° Southeast 402 463 20,300 -1,200 Descending Los Angeles Center
12:48AM 36.3511 -116.1172 133° Southeast 410 472 19,200 -2,040 Descending Los Angeles Center
12:48AM 36.3158 -116.0600 127° Southeast 397 457 18,200 -2,100 Descending Los Angeles Center
12:49AM 36.2864 -116.0233 135° Southeast 396 456 17,300 -1,800 Descending Los Angeles Center
12:49AM 36.2461 -115.9614 129° Southeast 384 442 16,400 -1,080 Descending Los Angeles Center
12:50AM 36.2133 -115.9217 136° Southeast 370 426 16,100 -840 Descending Los Angeles Center
12:50AM 36.1878 -115.8586 117° Southeast 343 395 15,600 -1,020 Descending Los Angeles Center
12:51AM 36.1725 -115.8203 116° Southeast 336 387 15,200 -1,080 Descending Los Angeles Center
12:51AM 36.1531 -115.7506 109° East 339 390 14,500 -1,020 Descending Los Angeles Center
12:52AM 36.1347 -115.7022 115° Southeast 334 384 14,100 -900 Descending Los Angeles Center
12:52AM 36.1186 -115.6458 109° East 330 380 13,600 -1,020 Descending Los Angeles Center
12:53AM 36.1058 -115.6078 113° Southeast 330 380 13,200 -1,020 Descending Los Angeles Center
12:53AM 36.0872 -115.5486 111° Southeast 327 376 12,600 -1,020 Descending Los Angeles Center
12:54AM 36.0706 -115.5025 114° Southeast 321 369 12,200 -900 Descending Los Angeles Center
12:54AM 36.0547 -115.4506 111° Southeast 316 364 11,700 -900 Descending Los Angeles Center
12:55AM 36.0417 -115.4081 111° Southeast 294 338 11,300 -780 Descending Los Angeles Center
12:56AM 36.0281 -115.3583 109° East 298 343 10,800 -1,140 Descending Los Angeles Center
12:57AM 36.0197 -115.2250 94° East 281 323 9,200 -1,260 Descending Los Angeles Center
12:58AM 36.0136 -115.1311 95° East 278 320 8,300 -1,140 Descending Los Angeles Center
12:59AM 36.0058 -115.0442 96° East 264 304 7,000 -1,380 Descending Los Angeles Center
01:00AM 36.0064 -114.9650 89° East 245 282 5,600 -1,320 Descending Los Angeles Center
01:01AM 36.0492 -114.9744 350° North 205 236 4,400 -1,080 Descending Los Angeles Center
01:02AM 36.0711 -115.0261 298° West 146 168 3,500 -780 Descending Los Angeles Center
01:03AM 36.0753 -115.0686 277° West 154 177 2,900 -660 Descending Los Angeles Center
01:04AM 36.0733 -115.1164 267° West 145 167 2,200 -720 Descending Los Angeles Center